Latest Weather Observations for Darwin Harbour

IDD60801

Issued at 11:01 pm CST Monday 26 June 2017 (issued every 30 minutes, with the page automatically refreshed every 10 minutes)

About weather observations | Map of weather stations | Latest weather observations for NT | Other Formats
Station Details ID: 014072 Name: DARWIN NTC AWS Lat: -12.47 Lon: 130.85 Height: 0.0 m
Data from the previous 72 hours. | See also: Recent months for locations in Northern Territory
Date/Time
CST
Temp
°C
App
Temp
°C
Dew
Point
°C
Rel
Hum
%
Delta-T
°C
Wind Press
QNH
hPa
Press
MSL
hPa
Rain since
9am
mm
Dir  Spd
km/h
Gust
km/h
Spd
kts
Gust
kts
26/11:00pm - - - - - SW 17 20 9 11 1013.8 1013.7 -
26/10:30pm - - - - - SSW 13 15 7 8 1014.0 1013.9 -
26/10:00pm - - - - - SSW 9 13 5 7 1013.9 1013.8 -
26/09:30pm - - - - - SE 6 9 3 5 1013.6 1013.5 -
26/09:00pm - - - - - E 6 9 3 5 1013.2 1013.1 -
26/08:30pm - - - - - ENE 4 7 2 4 1012.9 1012.8 -
26/08:00pm - - - - - NE 6 15 3 8 1012.4 1012.3 -
26/07:30pm - - - - - NE 7 19 4 10 1012.0 1011.9 -
26/07:00pm - - - - - NE 9 20 5 11 1011.5 1011.4 -
26/06:30pm - - - - - NNE 11 20 6 11 1011.2 1011.1 -
26/06:00pm - - - - - N 11 15 6 8 1011.0 1010.9 -
26/05:30pm - - - - - NW 9 15 5 8 1010.8 1010.7 -
26/05:00pm - - - - - NW 11 19 6 10 1010.7 1010.6 -
26/04:30pm - - - - - NW 11 19 6 10 1010.7 1010.6 -
26/04:00pm - - - - - NNW 13 20 7 11 1010.6 1010.5 -
26/03:30pm - - - - - NW 13 20 7 11 1010.9 1010.8 -
26/03:00pm - - - - - NNW 13 24 7 13 1011.2 1011.1 -
26/02:30pm - - - - - E 13 22 7 12 1011.3 1011.2 -
26/02:00pm - - - - - ESE 11 17 6 9 1011.5 1011.4 -
26/01:30pm - - - - - E 13 20 7 11 1011.9 1011.8 -
26/01:00pm - - - - - ESE 15 26 8 14 1012.2 1012.1 -
26/12:30pm - - - - - SE 9 15 5 8 1012.7 1012.6 -
26/12:00pm - - - - - ESE 9 15 5 8 1013.0 1012.9 -
26/11:30am - - - - - ENE 13 20 7 11 1013.5 1013.4 -
26/11:00am - - - - - ENE 19 26 10 14 1013.8 1013.7 -
26/10:30am - - - - - ENE 19 26 10 14 1014.0 1013.9 -
26/10:00am - - - - - ENE 15 22 8 12 1014.1 1014.0 -
26/09:30am - - - - - E 7 15 4 8 1014.2 1014.1 -
26/09:00am - - - - - ENE 11 15 6 8 1014.3 1014.2 -
26/08:30am - - - - - ENE 9 13 5 7 1014.1 1014.0 -
26/08:00am - - - - - ENE 7 13 4 7 1013.6 1013.5 -
26/07:30am - - - - - ESE 6 9 3 5 1013.4 1013.3 -
26/07:00am - - - - - SE 7 9 4 5 1012.9 1012.8 -
26/06:30am - - - - - SE 7 9 4 5 1012.6 1012.5 -
26/06:00am - - - - - ESE 4 6 2 3 1012.4 1012.3 -
26/05:30am - - - - - SE 6 7 3 4 1012.2 1012.1 -
26/05:00am - - - - - ENE 4 7 2 4 1012.2 1012.1 -
26/04:30am - - - - - CALM 0 2 0 1 1012.0 1011.9 -
26/04:00am - - - - - ENE 4 6 2 3 1011.9 1011.8 -
26/03:30am - - - - - NE 2 4 1 2 1012.2 1012.1 -
26/03:00am - - - - - ENE 4 7 2 4 1012.5 1012.4 -
26/02:30am - - - - - ENE 6 9 3 5 1012.5 1012.4 -
26/02:00am - - - - - NE 4 9 2 5 1012.7 1012.6 -
26/01:30am - - - - - ENE 4 7 2 4 1012.8 1012.7 -
26/01:00am - - - - - E 6 9 3 5 1012.8 1012.7 -
26/12:30am - - - - - ENE 4 7 2 4 1012.7 1012.6 -
26/12:00am - - - - - ENE 2 6 1 3 1012.6 1012.5 -
 
Date/Time
CST
Temp
°C
App
Temp
°C
Dew
Point
°C
Rel
Hum
%
Delta-T
°C
Wind Press
QNH
hPa
Press
MSL
hPa
Rain since
9am
mm
Dir  Spd
km/h
Gust
km/h
Spd
kts
Gust
kts
25/11:30pm - - - - - W 2 4 1 2 1012.5 1012.4 -
25/11:00pm - - - - - WSW 2 6 1 3 1012.4 1012.3 -
25/10:30pm - - - - - SW 2 4 1 2 1012.4 1012.3 -
25/10:00pm - - - - - CALM 0 2 0 1 1012.3 1012.2 -
25/09:30pm - - - - - CALM 0 4 0 2 1012.0 1011.9 -
25/09:00pm - - - - - NE 4 9 2 5 1011.8 1011.7 -
25/08:30pm - - - - - NNE 9 15 5 8 1011.7 1011.6 -
25/08:00pm - - - - - N 7 11 4 6 1011.6 1011.5 -
25/07:30pm - - - - - NNE 7 13 4 7 1011.4 1011.3 -
25/07:00pm - - - - - N 9 13 5 7 1011.1 1011.0 -
25/06:30pm - - - - - NNE 11 19 6 10 1010.6 1010.5 -
25/06:00pm - - - - - NNE 9 19 5 10 1010.1 1010.0 -
25/05:30pm - - - - - N 15 24 8 13 1010.0 1009.9 -
25/05:00pm - - - - - NNE 13 24 7 13 1009.6 1009.5 -
25/04:30pm - - - - - N 11 22 6 12 1009.9 1009.8 -
25/04:00pm - - - - - NNE 13 24 7 13 1009.9 1009.8 -
25/03:30pm - - - - - NNW 11 22 6 12 1010.2 1010.1 -
25/03:00pm - - - - - NW 13 22 7 12 1010.4 1010.3 -
25/02:30pm - - - - - WNW 11 19 6 10 1010.7 1010.6 -
25/02:00pm - - - - - WNW 11 24 6 13 1011.1 1011.0 -
25/01:30pm - - - - - WNW 13 17 7 9 1011.5 1011.4 -
25/01:00pm - - - - - WSW 6 11 3 6 1012.0 1011.9 -
25/12:30pm - - - - - SE 9 11 5 6 1012.4 1012.3 -
25/12:00pm - - - - - SSE 9 13 5 7 1012.7 1012.6 -
25/11:30am - - - - - SSE 7 11 4 6 1013.1 1013.0 -
25/11:00am - - - - - SSE 9 11 5 6 1013.3 1013.2 -
25/10:30am - - - - - SE 6 9 3 5 1013.4 1013.3 -
25/10:00am - - - - - ESE 4 9 2 5 1013.4 1013.3 -
25/09:30am - - - - - ENE 7 11 4 6 1013.4 1013.3 -
25/09:00am - - - - - ENE 9 15 5 8 1013.4 1013.3 -
25/08:30am - - - - - ENE 7 9 4 5 1013.4 1013.3 -
25/08:00am - - - - - E 4 7 2 4 1013.1 1013.0 -
25/07:30am - - - - - ESE 6 9 3 5 1012.9 1012.8 -
25/07:00am - - - - - E 4 9 2 5 1012.6 1012.5 -
25/06:30am - - - - - SSE 9 13 5 7 1012.2 1012.1 -
25/06:00am - - - - - ESE 4 7 2 4 1011.9 1011.8 -
25/05:30am - - - - - SSE 2 6 1 3 1011.7 1011.6 -
25/05:00am - - - - - SW 2 6 1 3 1011.7 1011.6 -
25/04:30am - - - - - SW 4 7 2 4 1011.6 1011.5 -
25/04:00am - - - - - S 4 7 2 4 1011.5 1011.4 -
25/03:30am - - - - - ENE 2 4 1 2 1011.4 1011.3 -
25/03:00am - - - - - ENE 4 7 2 4 1011.5 1011.4 -
25/02:30am - - - - - ENE 4 7 2 4 1011.6 1011.5 -
25/02:00am - - - - - NE 2 6 1 3 1011.8 1011.7 -
25/01:30am - - - - - ENE 2 6 1 3 1012.1 1012.0 -
25/01:00am - - - - - ENE 4 6 2 3 1012.2 1012.1 -
25/12:30am - - - - - SSE 4 7 2 4 1012.3 1012.2 -
25/12:00am - - - - - WSW 2 6 1 3 1012.0 1011.9 -
 
Date/Time
CST
Temp
°C
App
Temp
°C
Dew
Point
°C
Rel
Hum
%
Delta-T
°C
Wind Press
QNH
hPa
Press
MSL
hPa
Rain since
9am
mm
Dir  Spd
km/h
Gust
km/h
Spd
kts
Gust
kts
24/11:30pm - - - - - SW 7 13 4 7 1011.8 1011.7 -
24/11:00pm - - - - - SW 7 13 4 7 1011.5 1011.4 -
24/10:30pm - - - - - SW 4 6 2 3 1011.5 1011.4 -
24/10:00pm - - - - - WNW 2 4 1 2 1011.4 1011.3 -
24/09:30pm - - - - - E 2 2 1 1 1011.2 1011.1 -
24/09:00pm - - - - - ENE 2 4 1 2 1010.9 1010.8 -
24/08:30pm - - - - - NE 2 9 1 5 1010.6 1010.5 -
24/08:00pm - - - - - NE 6 15 3 8 1010.2 1010.1 -
24/07:30pm - - - - - NE 7 15 4 8 1009.6 1009.5 -
24/07:00pm - - - - - NE 11 20 6 11 1009.2 1009.1 -
24/06:30pm - - - - - NNE 9 19 5 10 1008.9 1008.8 -
24/06:00pm - - - - - NNE 13 20 7 11 1008.7 1008.6 -
24/05:30pm - - - - - NNE 11 20 6 11 1008.7 1008.6 -
24/05:00pm - - - - - NNW 7 19 4 10 1008.6 1008.5 -
24/04:30pm - - - - - NNW 9 19 5 10 1008.6 1008.5 -
24/04:00pm - - - - - NW 11 20 6 11 1008.8 1008.7 -
24/03:30pm - - - - - WNW 11 19 6 10 1009.1 1009.0 -
24/03:00pm - - - - - NNW 6 13 3 7 1009.3 1009.2 -
24/02:30pm - - - - - E 6 9 3 5 1009.7 1009.6 -
24/02:00pm - - - - - SE 9 15 5 8 1010.3 1010.2 -
24/01:30pm - - - - - SE 9 15 5 8 1010.9 1010.8 -
24/01:00pm - - - - - E 11 20 6 11 1011.3 1011.2 -
24/12:30pm - - - - - E 17 26 9 14 1011.8 1011.7 -
24/12:00pm - - - - - ENE 17 24 9 13 1012.4 1012.3 -
24/11:30am - - - - - E 15 20 8 11 1012.8 1012.7 -
24/11:00am - - - - - ENE 15 19 8 10 1013.2 1013.1 -
24/10:30am - - - - - ENE 13 19 7 10 1013.5 1013.4 -
24/10:00am - - - - - ENE 11 17 6 9 1013.7 1013.6 -
24/09:30am - - - - - ENE 13 19 7 10 1013.6 1013.5 -
24/09:00am - - - - - ENE 7 11 4 6 1013.4 1013.3 -
24/08:30am - - - - - ENE 7 11 4 6 1013.0 1012.9 -
24/08:00am - - - - - ENE 11 15 6 8 1012.7 1012.6 -
24/07:30am - - - - - E 9 13 5 7 1012.4 1012.3 -
24/07:00am - - - - - ENE 7 9 4 5 1012.1 1012.0 -
24/06:30am - - - - - ENE 9 11 5 6 1011.7 1011.6 -
24/06:00am - - - - - E 9 11 5 6 1011.6 1011.5 -
24/05:30am - - - - - ENE 4 9 2 5 1011.5 1011.4 -
24/05:00am - - - - - ENE 6 7 3 4 1011.4 1011.3 -
24/04:30am - - - - - ENE 4 6 2 3 1011.3 1011.2 -
24/04:00am - - - - - ENE 4 7 2 4 1011.4 1011.3 -
24/03:30am - - - - - ENE 4 7 2 4 1011.5 1011.4 -
24/03:00am - - - - - ENE 4 6 2 3 1011.6 1011.5 -
24/02:30am - - - - - NE 2 6 1 3 1011.8 1011.7 -
24/02:00am - - - - - E 6 7 3 4 1011.9 1011.8 -
24/01:30am - - - - - ENE 4 7 2 4 1012.1 1012.0 -
24/01:00am - - - - - ENE 6 11 3 6 1012.3 1012.2 -
24/12:30am - - - - - ENE 4 7 2 4 1012.4 1012.3 -
24/12:00am - - - - - S 2 4 1 2 1012.2 1012.1 -
 
Date/Time
CST
Temp
°C
App
Temp
°C
Dew
Point
°C
Rel
Hum
%
Delta-T
°C
Wind Press
QNH
hPa
Press
MSL
hPa
Rain since
9am
mm
Dir  Spd
km/h
Gust
km/h
Spd
kts
Gust
kts
23/11:30pm - - - - - SSW 9 11 5 6 1012.4 1012.3 -

Other Formats:

Comma delimited format used in spreadsheet applications
http://www.bom.gov.au/fwo/IDD60801/IDD60801.95122.axf

JavaScript Object Notation format (JSON) in row-major order
http://www.bom.gov.au/fwo/IDD60801/IDD60801.95122.json